createdAt,value
2023-04-23T00:01:17.808Z,20.58
2023-04-23T00:03:45.492Z,20.00
2023-04-23T00:06:14.518Z,20.52
2023-04-23T00:08:42.203Z,20.85
2023-04-23T00:11:10.282Z,19.98
2023-04-23T00:13:37.860Z,20.35
2023-04-23T00:16:05.486Z,21.08
2023-04-23T00:18:32.698Z,20.40
2023-04-23T00:20:59.991Z,21.52
2023-04-23T00:23:27.073Z,19.55
2023-04-23T00:25:54.073Z,19.98
2023-04-23T00:28:22.357Z,21.73
2023-04-23T00:30:49.729Z,20.65
2023-04-23T00:33:16.706Z,20.73
2023-04-23T00:35:43.841Z,20.77
2023-04-23T00:38:10.845Z,20.80
2023-04-23T00:40:37.968Z,19.35
2023-04-23T00:43:05.222Z,20.63
2023-04-23T00:45:32.213Z,20.83
2023-04-23T00:47:59.689Z,20.98
2023-04-23T00:50:26.736Z,19.65
2023-04-23T00:52:53.759Z,20.33
2023-04-23T00:55:23.608Z,20.88
2023-04-23T00:57:50.993Z,20.65
2023-04-23T01:00:20.439Z,20.45
2023-04-23T01:02:49.160Z,19.45
2023-04-23T01:05:18.352Z,20.77
2023-04-23T01:07:46.114Z,19.85
2023-04-23T01:10:13.545Z,19.52
2023-04-23T01:12:40.410Z,19.10
2023-04-23T01:15:09.119Z,18.58
2023-04-23T01:17:37.303Z,19.42
2023-04-23T01:20:06.724Z,19.23
2023-04-23T01:22:38.320Z,19.02
2023-04-23T01:25:06.072Z,18.40
2023-04-23T01:27:36.008Z,18.52
2023-04-23T01:30:05.948Z,17.85
2023-04-23T01:32:33.334Z,18.23
2023-04-23T01:35:00.474Z,18.20
2023-04-23T01:37:28.286Z,18.42
2023-04-23T01:39:55.137Z,18.40
2023-04-23T01:42:23.446Z,17.20
2023-04-23T01:44:50.651Z,17.15
2023-04-23T01:47:19.176Z,18.45
2023-04-23T01:49:46.036Z,17.58
2023-04-23T01:52:13.140Z,18.90
2023-04-23T01:54:40.228Z,20.05
2023-04-23T01:57:07.491Z,19.13
2023-04-23T01:59:34.364Z,19.27
2023-04-23T02:02:01.272Z,19.17
2023-04-23T02:04:30.249Z,19.10
2023-04-23T02:06:57.434Z,18.77
2023-04-23T02:09:24.353Z,18.58
2023-04-23T02:11:51.416Z,19.13
2023-04-23T02:14:18.366Z,19.52
2023-04-23T02:16:45.642Z,18.55
2023-04-23T02:19:14.112Z,17.55
2023-04-23T02:21:42.999Z,16.80
2023-04-23T02:24:10.046Z,17.25
2023-04-23T02:26:37.068Z,16.48
2023-04-23T02:29:04.140Z,16.42
2023-04-23T02:31:31.121Z,16.60
2023-04-23T02:33:58.147Z,15.32
2023-04-23T02:36:30.833Z,15.40
2023-04-23T02:38:57.782Z,15.25
2023-04-23T02:41:24.685Z,15.48
2023-04-23T02:43:51.713Z,14.73
2023-04-23T02:46:18.671Z,13.38
2023-04-23T02:48:45.568Z,13.10
2023-04-23T02:51:14.141Z,13.60
2023-04-23T02:53:41.101Z,12.18
2023-04-23T02:56:08.010Z,13.48
2023-04-23T02:58:35.313Z,10.77
2023-04-23T03:01:02.814Z,11.43
2023-04-23T03:03:32.183Z,11.32
2023-04-23T03:06:01.356Z,9.90
2023-04-23T03:08:29.093Z,9.43
2023-04-23T03:10:56.202Z,9.95
2023-04-23T03:13:23.197Z,9.15
2023-04-23T03:15:51.120Z,8.57
2023-04-23T03:18:17.986Z,8.50
2023-04-23T03:20:44.963Z,8.93
2023-04-23T03:23:12.050Z,8.00
2023-04-23T03:25:39.457Z,8.27
2023-04-23T03:28:06.585Z,8.20
2023-04-23T03:30:33.736Z,7.50
2023-04-23T03:33:02.584Z,7.60
2023-04-23T03:35:29.779Z,7.53
2023-04-23T03:37:56.816Z,7.53
2023-04-23T03:40:23.819Z,7.18
2023-04-23T03:42:50.659Z,7.40
2023-04-23T03:45:17.465Z,6.63
2023-04-23T03:47:44.444Z,6.75
2023-04-23T03:50:13.512Z,6.63
2023-04-23T03:52:40.856Z,6.40
2023-04-23T03:55:08.172Z,5.95
2023-04-23T03:57:36.263Z,6.90
2023-04-23T04:00:04.980Z,6.22
2023-04-23T04:02:40.034Z,6.60
2023-04-23T04:05:13.679Z,6.22
2023-04-23T04:07:41.301Z,6.63
2023-04-23T04:10:08.497Z,6.38
2023-04-23T04:12:36.343Z,6.10
2023-04-23T04:15:04.243Z,6.35
2023-04-23T04:17:33.292Z,6.60
2023-04-23T04:20:00.527Z,6.18
2023-04-23T04:22:27.475Z,5.97
2023-04-23T04:24:54.788Z,6.03
2023-04-23T04:27:21.861Z,5.93
2023-04-23T04:29:48.948Z,5.88
2023-04-23T04:32:16.280Z,6.22
2023-04-23T04:34:43.536Z,6.28
2023-04-23T04:37:11.631Z,6.15
2023-04-23T04:39:38.428Z,6.43
2023-04-23T04:42:06.954Z,6.63
2023-04-23T04:44:36.340Z,6.95
2023-04-23T04:47:03.461Z,5.93
2023-04-23T04:49:30.544Z,6.97
2023-04-23T04:51:57.536Z,6.60
2023-04-23T04:54:24.539Z,6.22
2023-04-23T04:56:51.379Z,5.70
2023-04-23T04:59:18.152Z,5.85
2023-04-23T05:01:45.386Z,6.15
2023-04-23T05:04:12.542Z,6.47
2023-04-23T05:06:39.668Z,5.97
2023-04-23T05:09:06.643Z,6.47
2023-04-23T05:11:33.598Z,6.28
2023-04-23T05:14:00.583Z,6.38
2023-04-23T05:16:27.651Z,5.88
2023-04-23T05:18:54.695Z,6.15
2023-04-23T05:21:22.010Z,6.95
2023-04-23T05:23:49.870Z,6.53
2023-04-23T05:26:18.273Z,6.53
2023-04-23T05:28:45.117Z,5.88
2023-04-23T05:31:12.127Z,6.25
2023-04-23T05:33:49.265Z,6.30
2023-04-23T05:36:17.140Z,5.35
2023-04-23T05:38:44.084Z,5.82
2023-04-23T05:41:11.035Z,5.43
2023-04-23T05:43:38.023Z,5.50
2023-04-23T05:46:07.458Z,5.35
2023-04-23T05:48:35.205Z,5.32
2023-04-23T05:51:02.173Z,6.10
2023-04-23T05:53:29.415Z,6.13
2023-04-23T05:55:56.633Z,4.85
2023-04-23T05:58:24.146Z,5.32
2023-04-23T06:00:53.108Z,4.88
2023-04-23T06:03:20.591Z,4.40
2023-04-23T06:05:48.375Z,4.70
2023-04-23T06:08:15.325Z,4.25
2023-04-23T06:10:42.126Z,4.60
2023-04-23T06:13:09.365Z,4.15
2023-04-23T06:15:36.235Z,3.92
2023-04-23T06:18:03.289Z,4.50
2023-04-23T06:20:30.505Z,4.43
2023-04-23T06:22:57.392Z,4.38
2023-04-23T06:25:24.381Z,4.47
2023-04-23T06:27:51.193Z,3.58
2023-04-23T06:30:18.014Z,3.95
2023-04-23T06:32:44.933Z,4.05
2023-04-23T06:35:11.832Z,4.40
2023-04-23T06:37:38.653Z,3.70
2023-04-23T06:40:06.676Z,3.58
2023-04-23T06:42:33.554Z,3.55
2023-04-23T06:45:06.086Z,3.75
2023-04-23T06:47:33.711Z,3.85
2023-04-23T06:50:00.957Z,3.75
2023-04-23T06:52:28.053Z,3.40
2023-04-23T06:54:55.169Z,2.90
2023-04-23T06:57:22.230Z,3.25
2023-04-23T06:59:49.237Z,3.40
2023-04-23T07:02:16.387Z,3.45
2023-04-23T07:04:44.463Z,3.90
2023-04-23T07:07:12.124Z,3.47
2023-04-23T07:09:39.369Z,3.40
2023-04-23T07:12:06.469Z,4.13
2023-04-23T07:14:33.437Z,3.72
2023-04-23T07:17:00.500Z,3.65
2023-04-23T07:19:27.618Z,4.10
2023-04-23T07:21:54.613Z,3.90
2023-04-23T07:24:21.620Z,3.40
2023-04-23T07:26:48.525Z,4.07
2023-04-23T07:29:15.638Z,3.40
2023-04-23T07:31:42.684Z,4.13
2023-04-23T07:34:09.982Z,3.60
2023-04-23T07:36:36.964Z,3.80
2023-04-23T07:39:05.314Z,3.78
2023-04-23T07:41:33.000Z,3.95
2023-04-23T07:43:59.943Z,4.10
2023-04-23T07:46:27.191Z,4.78
2023-04-23T07:48:54.331Z,3.83
2023-04-23T07:51:22.644Z,4.25
2023-04-23T07:53:51.889Z,4.35
2023-04-23T07:56:18.906Z,3.85
2023-04-23T07:58:45.977Z,4.30
2023-04-23T08:01:12.914Z,3.92
2023-04-23T08:03:40.694Z,4.18
2023-04-23T08:06:07.956Z,4.35
2023-04-23T08:08:34.885Z,4.53
2023-04-23T08:11:02.199Z,4.60
2023-04-23T08:13:29.070Z,4.30
2023-04-23T08:15:55.958Z,4.10
2023-04-23T08:18:22.984Z,4.40
2023-04-23T08:20:49.979Z,4.15
2023-04-23T08:23:17.200Z,3.97
2023-04-23T08:25:44.428Z,3.60
2023-04-23T08:28:11.413Z,4.18
2023-04-23T08:30:38.933Z,4.22
2023-04-23T08:33:05.890Z,3.85
2023-04-23T08:35:32.741Z,3.47
2023-04-23T08:37:59.834Z,3.30
2023-04-23T08:40:31.394Z,3.63
2023-04-23T08:43:02.959Z,3.42
2023-04-23T08:45:30.990Z,3.50
2023-04-23T08:48:02.139Z,3.60
2023-04-23T08:50:31.188Z,3.25
2023-04-23T08:52:58.775Z,3.40
2023-04-23T08:55:26.266Z,3.80
2023-04-23T08:57:53.436Z,3.50
2023-04-23T09:00:23.273Z,3.85
2023-04-23T09:02:51.123Z,4.13
2023-04-23T09:05:19.142Z,4.03
2023-04-23T09:07:46.271Z,3.55
2023-04-23T09:10:17.704Z,3.53
2023-04-23T09:12:45.628Z,3.67
2023-04-23T09:15:14.056Z,3.70
2023-04-23T09:17:44.048Z,3.58
2023-04-23T09:20:13.061Z,3.78
2023-04-23T09:22:40.081Z,2.75
2023-04-23T09:25:12.137Z,3.80
2023-04-23T09:27:40.193Z,3.50
2023-04-23T09:30:09.997Z,3.22
2023-04-23T09:32:42.508Z,3.08
2023-04-23T09:35:13.898Z,3.13
2023-04-23T09:37:49.123Z,3.10
2023-04-23T09:40:20.077Z,2.80
2023-04-23T09:42:55.873Z,3.58
2023-04-23T09:45:25.972Z,2.67
2023-04-23T09:48:05.325Z,2.60
2023-04-23T09:50:44.020Z,2.65
2023-04-23T09:53:14.432Z,2.90
2023-04-23T09:55:43.068Z,2.92
2023-04-23T09:58:15.608Z,2.70
2023-04-23T10:00:43.409Z,2.45
2023-04-23T10:03:12.475Z,2.55
2023-04-23T10:05:59.861Z,2.42
2023-04-23T10:08:29.056Z,2.92
2023-04-23T10:11:09.644Z,2.10
2023-04-23T10:13:42.476Z,2.50
2023-04-23T10:16:21.285Z,2.10
2023-04-23T10:18:52.897Z,2.38
2023-04-23T10:21:20.727Z,1.98
2023-04-23T10:23:50.144Z,2.40
2023-04-23T10:26:17.339Z,1.90
2023-04-23T10:28:48.203Z,1.70
2023-04-23T10:31:15.898Z,1.80
2023-04-23T10:33:55.901Z,2.13
2023-04-23T10:36:27.946Z,1.70
2023-04-23T10:38:59.017Z,2.15
2023-04-23T10:41:35.819Z,2.03
2023-04-23T10:44:07.269Z,1.83
2023-04-23T10:46:37.093Z,1.48
2023-04-23T10:49:09.730Z,1.30
2023-04-23T10:54:09.919Z,1.70
2023-04-23T10:56:39.369Z,1.70
2023-04-23T10:59:29.808Z,1.83
2023-04-23T11:02:06.748Z,2.03
2023-04-23T11:04:35.920Z,1.90
2023-04-23T11:07:10.475Z,2.22
2023-04-23T11:09:40.783Z,1.80
2023-04-23T11:12:11.039Z,2.00
2023-04-23T11:14:46.892Z,2.28
2023-04-23T11:17:18.794Z,2.15
2023-04-23T11:20:13.655Z,2.00
2023-04-23T11:22:43.857Z,1.90
2023-04-23T11:25:34.966Z,1.77
2023-04-23T11:28:01.863Z,2.08
2023-04-23T11:30:32.851Z,2.03
2023-04-23T11:33:01.468Z,1.73
2023-04-23T11:35:30.367Z,2.42
2023-04-23T11:37:57.638Z,2.20
2023-04-23T11:40:24.889Z,2.70
2023-04-23T11:42:55.497Z,2.33
2023-04-23T11:45:27.617Z,1.92
2023-04-23T11:47:57.172Z,2.25
2023-04-23T11:50:27.309Z,2.47
2023-04-23T11:52:55.199Z,2.30
2023-04-23T11:55:23.441Z,2.20
2023-04-23T11:57:52.550Z,1.95
2023-04-23T12:00:22.125Z,2.50
2023-04-23T12:02:55.203Z,1.90
2023-04-23T12:05:49.107Z,1.85
2023-04-23T12:08:20.488Z,1.80
2023-04-23T12:10:53.360Z,1.70
2023-04-23T12:13:24.223Z,1.50
2023-04-23T12:15:56.670Z,1.60
2023-04-23T12:18:41.537Z,1.27
2023-04-23T12:21:10.743Z,1.98
2023-04-23T12:23:44.781Z,1.90
2023-04-23T12:26:13.860Z,1.45
2023-04-23T12:28:55.737Z,1.50
2023-04-23T12:31:30.301Z,1.38
2023-04-23T12:34:08.235Z,1.80
2023-04-23T12:36:41.002Z,1.77
2023-04-23T12:39:29.674Z,1.95
2023-04-23T12:42:08.310Z,1.70
2023-04-23T12:44:36.398Z,1.85
2023-04-23T12:47:05.993Z,1.20
2023-04-23T12:49:34.560Z,1.20
2023-04-23T12:52:03.715Z,1.52
2023-04-23T12:54:38.584Z,1.45
2023-04-23T12:57:12.292Z,1.30
2023-04-23T12:59:39.326Z,1.23
2023-04-23T13:02:07.299Z,1.70
2023-04-23T13:04:36.470Z,1.40
2023-04-23T13:07:03.957Z,1.40
2023-04-23T13:09:31.527Z,1.48
2023-04-23T13:12:00.397Z,1.60
2023-04-23T13:14:28.391Z,1.50
2023-04-23T13:16:55.685Z,1.70
2023-04-23T13:19:22.713Z,1.60
2023-04-23T13:21:49.806Z,1.75
2023-04-23T13:24:16.894Z,1.60
2023-04-23T13:26:43.716Z,1.90
2023-04-23T13:29:10.663Z,1.63
2023-04-23T13:31:37.817Z,2.03
2023-04-23T13:34:04.766Z,1.80
2023-04-23T13:36:31.821Z,1.85
2023-04-23T13:38:58.945Z,1.92
2023-04-23T13:41:25.996Z,2.10
2023-04-23T13:43:52.988Z,2.05
2023-04-23T13:46:20.591Z,1.85
2023-04-23T13:48:47.579Z,2.00
2023-04-23T13:51:33.290Z,2.63
2023-04-23T13:54:01.541Z,2.40
2023-04-23T13:56:30.194Z,1.90
2023-04-23T13:59:18.170Z,2.40
2023-04-23T14:01:47.320Z,2.00
2023-04-23T14:04:14.314Z,2.15
2023-04-23T14:06:42.509Z,1.88
2023-04-23T14:09:12.606Z,2.15
2023-04-23T14:11:41.644Z,1.85
2023-04-23T14:14:08.642Z,1.90
2023-04-23T14:16:35.770Z,1.85
2023-04-23T14:19:02.759Z,2.17
2023-04-23T14:21:30.261Z,2.08
2023-04-23T14:24:01.536Z,2.20
2023-04-23T14:26:47.959Z,2.08
2023-04-23T14:29:47.147Z,2.28
2023-04-23T14:32:14.353Z,2.08
2023-04-23T14:34:41.431Z,2.30
2023-04-23T14:37:08.753Z,2.10
2023-04-23T14:39:37.654Z,2.40
2023-04-23T14:42:08.597Z,2.10
2023-04-23T14:44:35.880Z,1.90
2023-04-23T14:47:31.677Z,1.90
2023-04-23T14:50:01.520Z,2.63
2023-04-23T14:52:47.503Z,2.15
2023-04-23T14:55:14.542Z,2.15
2023-04-23T14:57:41.512Z,2.10
2023-04-23T15:00:13.148Z,2.65
2023-04-23T15:02:41.922Z,2.40
2023-04-23T15:05:10.030Z,2.30
2023-04-23T15:07:37.810Z,1.95
2023-04-23T15:10:06.663Z,2.35
2023-04-23T15:12:55.262Z,2.50
2023-04-23T15:15:45.392Z,2.60
2023-04-23T15:18:15.755Z,2.67
2023-04-23T15:20:43.861Z,2.78
2023-04-23T15:23:11.361Z,2.65
2023-04-23T15:25:39.452Z,2.55
2023-04-23T15:28:07.534Z,2.90
2023-04-23T15:30:34.747Z,3.28
2023-04-23T15:33:01.892Z,3.45
2023-04-23T15:35:28.933Z,3.80
2023-04-23T15:37:55.834Z,4.47
2023-04-23T15:40:23.246Z,2.90
2023-04-23T15:42:50.470Z,2.92
2023-04-23T15:45:17.464Z,2.72
2023-04-23T15:47:44.469Z,2.92
2023-04-23T15:50:12.998Z,2.50
2023-04-23T15:52:41.754Z,2.22
2023-04-23T15:55:09.277Z,2.70
2023-04-23T15:57:36.108Z,1.80
2023-04-23T16:00:03.531Z,1.60
2023-04-23T16:02:34.631Z,1.58
2023-04-23T16:05:01.936Z,1.50
2023-04-23T16:07:29.224Z,1.33
2023-04-23T16:09:56.063Z,1.30
2023-04-23T16:12:23.016Z,1.02
2023-04-23T16:14:49.984Z,1.00
2023-04-23T16:17:17.062Z,1.10
2023-04-23T16:19:44.536Z,0.93
2023-04-23T16:22:11.845Z,1.10
2023-04-23T16:24:38.856Z,1.00
2023-04-23T16:27:06.833Z,1.95
2023-04-23T16:29:33.860Z,1.45
2023-04-23T16:32:01.043Z,1.10
2023-04-23T16:34:28.205Z,1.40
2023-04-23T16:36:55.275Z,1.20
2023-04-23T16:39:22.326Z,1.23
2023-04-23T16:41:49.316Z,1.30
2023-04-23T16:44:16.404Z,1.13
2023-04-23T16:46:43.610Z,1.30
2023-04-23T16:49:10.499Z,1.48
2023-04-23T16:51:37.393Z,1.80
2023-04-23T16:54:04.436Z,1.90
2023-04-23T16:56:31.350Z,1.88
2023-04-23T16:58:59.170Z,1.98
2023-04-23T17:01:26.127Z,1.70
2023-04-23T17:03:54.058Z,1.52
2023-04-23T17:06:28.987Z,2.30
2023-04-23T17:08:57.880Z,1.90
2023-04-23T17:11:26.259Z,3.35
2023-04-23T17:13:53.583Z,3.30
2023-04-23T17:16:20.847Z,4.32
2023-04-23T17:18:48.245Z,5.72
2023-04-23T17:21:15.554Z,4.35
2023-04-23T17:23:42.405Z,4.10
2023-04-23T17:26:09.251Z,3.67
2023-04-23T17:28:36.228Z,3.28
2023-04-23T17:31:03.569Z,3.13
2023-04-23T17:33:31.242Z,2.65
2023-04-23T17:35:58.162Z,2.42
2023-04-23T17:38:26.164Z,2.55
2023-04-23T17:40:53.587Z,2.80
2023-04-23T17:43:21.373Z,1.58
2023-04-23T17:45:48.877Z,2.42
2023-04-23T17:48:16.157Z,1.33
2023-04-23T17:50:44.104Z,1.10
2023-04-23T17:53:11.163Z,1.20
2023-04-23T17:55:38.412Z,1.48
2023-04-23T17:58:06.047Z,0.90
2023-04-23T18:00:43.513Z,1.00
2023-04-23T18:03:16.544Z,1.52
2023-04-23T18:05:45.659Z,1.60
2023-04-23T18:08:13.671Z,1.40
2023-04-23T18:10:40.966Z,2.63
2023-04-23T18:13:11.578Z,3.60
2023-04-23T18:15:41.130Z,3.38
2023-04-23T18:18:08.714Z,5.20
2023-04-23T18:20:38.333Z,2.03
2023-04-23T18:23:06.654Z,2.75
2023-04-23T18:25:34.130Z,2.83
2023-04-23T18:28:01.134Z,2.90
2023-04-23T18:30:28.844Z,3.70
2023-04-23T18:35:47.307Z,2.95
2023-04-23T18:38:48.208Z,2.95
2023-04-23T18:41:15.345Z,3.90
2023-04-23T18:43:42.447Z,2.50
2023-04-23T18:46:09.623Z,3.90
2023-04-23T18:49:07.532Z,2.50
2023-04-23T18:51:43.646Z,2.75
2023-04-23T18:54:14.892Z,2.33
2023-04-23T18:56:42.109Z,2.30
2023-04-23T18:59:09.048Z,2.45
2023-04-23T19:01:36.610Z,2.55
2023-04-23T19:04:04.476Z,2.35
2023-04-23T19:09:15.599Z,2.90
2023-04-23T19:11:42.700Z,3.50
2023-04-23T19:14:09.718Z,3.55
2023-04-23T19:16:36.884Z,3.38
2023-04-23T19:19:03.843Z,3.65
2023-04-23T19:21:31.791Z,3.25
2023-04-23T19:23:59.221Z,3.90
2023-04-23T19:26:26.485Z,4.38
2023-04-23T19:28:53.728Z,5.38
2023-04-23T19:31:20.740Z,5.63
2023-04-23T19:33:48.075Z,6.68
2023-04-23T19:36:15.373Z,8.10
2023-04-23T19:38:42.350Z,7.82
2023-04-23T19:41:09.425Z,8.25
2023-04-23T19:43:36.424Z,8.07
2023-04-23T19:46:03.637Z,7.72
2023-04-23T19:48:31.162Z,7.45
2023-04-23T19:50:59.545Z,7.38
2023-04-23T19:53:27.710Z,7.38
2023-04-23T19:55:54.729Z,7.85
2023-04-23T19:58:21.570Z,7.70
2023-04-23T20:00:48.621Z,8.32
2023-04-23T20:03:15.785Z,7.88
2023-04-23T20:05:44.910Z,7.57
2023-04-23T20:08:15.622Z,8.50
2023-04-23T20:10:43.329Z,8.35
2023-04-23T20:13:10.336Z,8.57
2023-04-23T20:15:37.663Z,10.20
2023-04-23T20:18:05.402Z,8.30
2023-04-23T20:20:34.021Z,7.35
2023-04-23T20:23:01.006Z,8.32
2023-04-23T20:25:28.046Z,8.07
2023-04-23T20:27:57.062Z,8.38
2023-04-23T20:30:24.264Z,8.27
2023-04-23T20:32:51.691Z,8.40
2023-04-23T20:35:18.545Z,7.75
2023-04-23T20:37:45.973Z,8.70
2023-04-23T20:40:14.435Z,8.60
2023-04-23T20:42:42.495Z,9.02
2023-04-23T20:45:13.064Z,9.00
2023-04-23T20:47:40.117Z,8.77
2023-04-23T20:50:07.348Z,9.00
2023-04-23T20:52:34.241Z,9.80
2023-04-23T20:55:01.177Z,8.65
2023-04-23T20:57:28.124Z,9.90
2023-04-23T20:59:54.920Z,10.00
2023-04-23T21:02:22.003Z,10.93
2023-04-23T21:04:49.396Z,10.07
2023-04-23T21:07:16.759Z,9.63
2023-04-23T21:09:43.864Z,9.20
2023-04-23T21:12:11.283Z,9.63
2023-04-23T21:14:38.618Z,10.18
2023-04-23T21:17:05.737Z,10.15
2023-04-23T21:19:32.537Z,9.70
2023-04-23T21:21:59.444Z,10.82
2023-04-23T21:24:26.435Z,10.30
2023-04-23T21:26:53.483Z,10.88
2023-04-23T21:29:20.556Z,10.25
2023-04-23T21:31:51.547Z,10.05
2023-04-23T21:34:19.703Z,10.73
2023-04-23T21:36:46.882Z,9.15
2023-04-23T21:39:13.868Z,10.30
2023-04-23T21:41:41.236Z,10.50
2023-04-23T21:44:08.564Z,9.77
2023-04-23T21:46:35.647Z,9.90
2023-04-23T21:49:02.554Z,10.93
2023-04-23T21:51:30.154Z,11.63
2023-04-23T21:53:57.257Z,10.80
2023-04-23T21:56:24.327Z,11.52
2023-04-23T21:58:51.157Z,11.80
2023-04-23T22:01:18.508Z,11.95
2023-04-23T22:03:46.839Z,13.13
2023-04-23T22:06:15.825Z,12.75
2023-04-23T22:08:44.802Z,12.50
2023-04-23T22:11:12.886Z,12.13
2023-04-23T22:13:39.843Z,12.07
2023-04-23T22:16:16.416Z,12.82
2023-04-23T22:18:47.966Z,13.38
2023-04-23T22:21:15.009Z,13.50
2023-04-23T22:23:41.950Z,15.00
2023-04-23T22:26:09.019Z,13.77
2023-04-23T22:28:36.062Z,13.02
2023-04-23T22:31:03.075Z,13.15
2023-04-23T22:33:30.056Z,14.40
2023-04-23T22:35:56.897Z,14.63
2023-04-23T22:38:23.788Z,14.90
2023-04-23T22:40:50.712Z,15.27
2023-04-23T22:43:17.547Z,15.57
2023-04-23T22:45:44.491Z,15.30
2023-04-23T22:48:11.574Z,16.48
2023-04-23T22:50:40.095Z,14.85
2023-04-23T22:53:07.209Z,15.13
2023-04-23T22:55:34.729Z,16.08
2023-04-23T22:58:01.855Z,15.95
2023-04-23T23:00:28.822Z,16.33
2023-04-23T23:02:55.886Z,16.77
2023-04-23T23:05:23.372Z,16.27
2023-04-23T23:07:50.296Z,16.42
2023-04-23T23:10:17.216Z,15.13
2023-04-23T23:12:44.091Z,15.13
2023-04-23T23:15:11.503Z,14.18
2023-04-23T23:17:38.542Z,14.68
2023-04-23T23:20:09.120Z,14.35
2023-04-23T23:22:37.503Z,14.82
2023-04-23T23:25:06.968Z,13.68
2023-04-23T23:27:34.054Z,14.43
2023-04-23T23:30:05.580Z,13.15
2023-04-23T23:32:33.582Z,13.00
2023-04-23T23:35:00.523Z,12.23
2023-04-23T23:37:27.738Z,12.75
2023-04-23T23:39:54.592Z,13.00
2023-04-23T23:42:21.709Z,11.95
2023-04-23T23:44:48.563Z,12.98
2023-04-23T23:47:15.476Z,13.05
2023-04-23T23:49:42.568Z,12.73
2023-04-23T23:52:09.672Z,10.98
2023-04-23T23:54:36.557Z,12.18
2023-04-23T23:57:03.721Z,11.70
2023-04-23T23:59:30.776Z,12.43
